Time;durP1;ratioP1;P1;durP2;ratioP2;P2;SDS_P1;SDS_P2;PMS_P1;PMS_P2;Temp;Humidity;BMP_temperature;BMP_pressure;BME280_temperature;BME280_humidity;BME280_pressure;Samples;Min_cycle;Max_cycle;Signal;HPM_P1;HPM_P2
2023/08/21 00:01:52;;;;;;;3.25;2.22;;;;;;;;;;5032536;28;20523;-73
2023/08/21 00:04:17;;;;;;;6.15;2.50;;;;;;;;;;5043310;28;20202;-72
2023/08/21 00:06:43;;;;;;;10.57;3.13;;;;;;;;;;5018004;28;20194;-73
2023/08/21 00:09:08;;;;;;;5.93;2.78;;;;;;;;;;5022136;28;20190;-72
2023/08/21 00:11:35;;;;;;;6.07;2.40;;;;;;;;;;5034703;28;20281;-72
2023/08/21 00:14:00;;;;;;;8.18;2.67;;;;;;;;;;5023006;28;20200;-72
2023/08/21 00:16:26;;;;;;;4.47;2.08;;;;;;;;;;5028830;28;20217;-73
2023/08/21 00:18:52;;;;;;;7.35;2.60;;;;;;;;;;5024436;28;20365;-73
2023/08/21 00:21:19;;;;;;;5.43;2.30;;;;;;;;;;5017076;28;20195;-72
2023/08/21 00:23:44;;;;;;;6.22;2.20;;;;;;;;;;5032978;28;20649;-73
2023/08/21 00:26:09;;;;;;;7.88;2.35;;;;;;;;;;5026748;28;20197;-72
2023/08/21 00:28:35;;;;;;;7.13;2.20;;;;;;;;;;5023678;28;20355;-72
2023/08/21 00:31:02;;;;;;;8.13;2.55;;;;;;;;;;5029351;28;20190;-72
2023/08/21 00:33:28;;;;;;;5.35;2.35;;;;;;;;;;5031384;28;20656;-73
2023/08/21 00:35:54;;;;;;;6.90;2.50;;;;;;;;;;5033097;28;20210;-72
2023/08/21 00:38:19;;;;;;;8.20;3.33;;;;;;;;;;5031483;28;20198;-72
2023/08/21 00:40:44;;;;;;;6.13;2.40;;;;;;;;;;5033039;28;20193;-72
2023/08/21 00:43:10;;;;;;;6.18;2.70;;;;;;;;;;5031553;28;20295;-73
2023/08/21 00:45:36;;;;;;;6.93;2.75;;;;;;;;;;5022066;28;20540;-73
2023/08/21 00:48:02;;;;;;;10.50;2.63;;;;;;;;;;5033239;28;20190;-73
2023/08/21 00:50:27;;;;;;;6.03;2.70;;;;;;;;;;5032840;28;20200;-73
2023/08/21 00:52:53;;;;;;;7.35;2.38;;;;;;;;;;5032516;28;20198;-73
2023/08/21 00:55:18;;;;;;;6.63;2.67;;;;;;;;;;5031218;28;20225;-73
2023/08/21 00:57:45;;;;;;;5.63;2.75;;;;;;;;;;5029987;28;20240;-72
2023/08/21 01:00:12;;;;;;;8.20;2.83;;;;;;;;;;5035741;28;20633;-73
2023/08/21 01:02:38;;;;;;;7.47;2.55;;;;;;;;;;5029279;28;20191;-73
2023/08/21 01:05:04;;;;;;;8.48;2.70;;;;;;;;;;5033375;28;20555;-73
2023/08/21 01:07:36;;;;;;;8.15;2.50;;;;;;;;;;5032265;28;20243;-72
2023/08/21 01:10:11;;;;;;;6.80;2.70;;;;;;;;;;5032470;28;20725;-72
2023/08/21 01:12:50;;;;;;;5.45;2.55;;;;;;;;;;5031607;28;20208;-72
2023/08/21 01:15:16;;;;;;;9.07;2.65;;;;;;;;;;5022190;28;20360;-72
2023/08/21 01:17:43;;;;;;;4.38;2.70;;;;;;;;;;5026530;28;20668;-72
2023/08/21 01:20:09;;;;;;;6.25;2.38;;;;;;;;;;5032524;28;20219;-72
2023/08/21 01:22:37;;;;;;;5.82;2.90;;;;;;;;;;5010847;28;20191;-73
2023/08/21 01:25:04;;;;;;;5.50;2.95;;;;;;;;;;5024888;28;20209;-72
2023/08/21 01:27:30;;;;;;;8.57;3.10;;;;;;;;;;5018507;28;20380;-72
2023/08/21 01:29:55;;;;;;;8.25;2.95;;;;;;;;;;5033442;28;20221;-72
2023/08/21 01:32:37;;;;;;;12.95;3.28;;;;;;;;;;5032593;28;20633;-73
2023/08/21 01:35:04;;;;;;;9.05;2.78;;;;;;;;;;5032135;28;20545;-72
2023/08/21 01:37:30;;;;;;;8.15;3.03;;;;;;;;;;5029769;28;20201;-72
2023/08/21 01:39:58;;;;;;;9.70;2.83;;;;;;;;;;5032301;28;20273;-73
2023/08/21 01:42:23;;;;;;;7.25;2.90;;;;;;;;;;5029068;28;20194;-73
2023/08/21 01:44:49;;;;;;;9.75;3.15;;;;;;;;;;5032102;28;20257;-73
2023/08/21 01:47:14;;;;;;;7.45;2.83;;;;;;;;;;5018709;28;20191;-73
2023/08/21 01:49:39;;;;;;;7.35;2.92;;;;;;;;;;5047615;28;20201;-72
2023/08/21 01:52:05;;;;;;;6.68;3.00;;;;;;;;;;5031601;28;20637;-73
2023/08/21 01:54:30;;;;;;;5.47;3.05;;;;;;;;;;5030289;28;20179;-73
2023/08/21 01:56:56;;;;;;;8.43;2.92;;;;;;;;;;5026773;28;20310;-73
2023/08/21 01:59:23;;;;;;;10.07;2.85;;;;;;;;;;5030284;28;20190;-73
2023/08/21 02:01:49;;;;;;;7.32;2.67;;;;;;;;;;5022693;28;20695;-73
2023/08/21 02:04:14;;;;;;;5.70;3.15;;;;;;;;;;5016834;28;20228;-73
2023/08/21 02:06:40;;;;;;;6.50;3.20;;;;;;;;;;5024513;28;20282;-73
2023/08/21 02:09:05;;;;;;;7.07;2.90;;;;;;;;;;5026081;28;20186;-72
2023/08/21 02:11:31;;;;;;;9.43;3.40;;;;;;;;;;5015753;28;20179;-72
2023/08/21 02:13:56;;;;;;;4.82;2.80;;;;;;;;;;5026863;28;20192;-72
2023/08/21 02:16:21;;;;;;;9.48;3.15;;;;;;;;;;5031161;28;20213;-72
2023/08/21 02:18:47;;;;;;;11.18;3.30;;;;;;;;;;5030620;28;20228;-72
2023/08/21 02:21:13;;;;;;;5.72;2.80;;;;;;;;;;5017174;28;20594;-72
2023/08/21 02:23:38;;;;;;;8.20;2.80;;;;;;;;;;5031435;28;20232;-72
2023/08/21 02:26:04;;;;;;;6.88;3.10;;;;;;;;;;5029295;28;20174;-72
2023/08/21 02:28:29;;;;;;;5.47;2.90;;;;;;;;;;5028078;28;20191;-72
2023/08/21 02:30:54;;;;;;;9.85;3.05;;;;;;;;;;5034507;28;20182;-72
2023/08/21 02:33:20;;;;;;;7.45;3.13;;;;;;;;;;5030204;28;20189;-72
2023/08/21 02:35:45;;;;;;;8.48;3.53;;;;;;;;;;5030884;28;20221;-72
2023/08/21 02:38:10;;;;;;;7.82;3.10;;;;;;;;;;5020801;28;20202;-72
2023/08/21 02:40:36;;;;;;;10.30;3.70;;;;;;;;;;5031022;28;20194;-72
2023/08/21 02:43:01;;;;;;;6.50;3.03;;;;;;;;;;5026625;28;20242;-72
2023/08/21 02:45:27;;;;;;;5.60;2.88;;;;;;;;;;5030775;28;20190;-72
2023/08/21 02:47:52;;;;;;;6.43;2.80;;;;;;;;;;5030592;28;20209;-72
2023/08/21 02:50:18;;;;;;;10.48;3.20;;;;;;;;;;5029922;28;20209;-72
2023/08/21 02:52:43;;;;;;;8.15;3.25;;;;;;;;;;5027055;28;20510;-73
2023/08/21 02:55:09;;;;;;;6.57;3.30;;;;;;;;;;5029749;28;20200;-73
2023/08/21 02:57:34;;;;;;;10.65;3.55;;;;;;;;;;5029734;28;20190;-73
2023/08/21 03:00:00;;;;;;;6.47;2.83;;;;;;;;;;5029190;28;20190;-72
2023/08/21 03:02:25;;;;;;;10.82;3.58;;;;;;;;;;5022279;28;20194;-72
2023/08/21 03:04:51;;;;;;;7.75;2.85;;;;;;;;;;5028537;28;20610;-72
2023/08/21 03:07:18;;;;;;;6.68;3.70;;;;;;;;;;5027976;28;20186;-72
2023/08/21 03:09:45;;;;;;;7.65;3.92;;;;;;;;;;5010394;28;20183;-72
2023/08/21 03:12:10;;;;;;;4.68;3.10;;;;;;;;;;5025260;28;20204;-72
2023/08/21 03:14:36;;;;;;;3.42;2.80;;;;;;;;;;5031919;28;20630;-73
2023/08/21 03:17:01;;;;;;;4.55;2.80;;;;;;;;;;5023466;28;20218;-72
2023/08/21 03:19:26;;;;;;;6.78;3.58;;;;;;;;;;5027638;28;20186;-72
2023/08/21 03:21:52;;;;;;;4.70;3.20;;;;;;;;;;5028752;28;20190;-72
2023/08/21 03:24:18;;;;;;;6.43;3.10;;;;;;;;;;5028601;28;20186;-72
2023/08/21 03:26:43;;;;;;;6.82;3.72;;;;;;;;;;5030469;28;20197;-72
2023/08/21 03:29:08;;;;;;;6.63;3.35;;;;;;;;;;5011081;28;20185;-72
2023/08/21 03:31:34;;;;;;;7.05;3.65;;;;;;;;;;5033969;28;20189;-73
2023/08/21 03:33:59;;;;;;;5.22;3.03;;;;;;;;;;5017905;28;20206;-74
2023/08/21 03:36:30;;;;;;;7.10;3.28;;;;;;;;;;5029380;28;20218;-73
2023/08/21 03:39:03;;;;;;;8.07;4.43;;;;;;;;;;5011799;28;20529;-73
2023/08/21 03:41:29;;;;;;;9.10;3.95;;;;;;;;;;5028855;28;20182;-71
2023/08/21 03:43:54;;;;;;;6.35;4.30;;;;;;;;;;5022716;28;20438;-71
2023/08/21 03:46:20;;;;;;;11.60;4.93;;;;;;;;;;5023329;28;20194;-72
2023/08/21 03:48:45;;;;;;;6.80;4.30;;;;;;;;;;5036319;28;20291;-72
2023/08/21 03:51:11;;;;;;;7.00;4.32;;;;;;;;;;5019071;28;20183;-72
2023/08/21 03:53:36;;;;;;;10.45;4.80;;;;;;;;;;5023104;28;20200;-73
2023/08/21 03:56:02;;;;;;;10.32;5.30;;;;;;;;;;5019188;28;20218;-72
2023/08/21 03:58:27;;;;;;;10.02;5.07;;;;;;;;;;5026829;28;20186;-73
2023/08/21 04:00:53;;;;;;;7.85;4.78;;;;;;;;;;5029635;28;20192;-72
2023/08/21 04:03:19;;;;;;;10.30;4.97;;;;;;;;;;5013865;28;20202;-72
2023/08/21 04:05:44;;;;;;;10.13;4.57;;;;;;;;;;5022169;28;20198;-72
2023/08/21 04:08:10;;;;;;;7.85;5.15;;;;;;;;;;5008991;28;20250;-72
2023/08/21 04:10:35;;;;;;;9.30;5.07;;;;;;;;;;5025961;28;20190;-72
2023/08/21 04:13:01;;;;;;;10.40;4.93;;;;;;;;;;5020592;28;20205;-72
2023/08/21 04:15:26;;;;;;;6.85;4.80;;;;;;;;;;5013600;28;20215;-72
2023/08/21 04:17:52;;;;;;;10.27;5.13;;;;;;;;;;5017409;28;20210;-72
2023/08/21 04:20:19;;;;;;;7.75;4.72;;;;;;;;;;5006156;28;20647;-72
2023/08/21 04:22:45;;;;;;;8.00;4.72;;;;;;;;;;5028963;28;20194;-72
2023/08/21 04:25:11;;;;;;;11.15;4.85;;;;;;;;;;5031203;28;20273;-72
2023/08/21 04:27:36;;;;;;;10.52;5.05;;;;;;;;;;5028987;28;20606;-72
2023/08/21 04:30:02;;;;;;;11.05;4.63;;;;;;;;;;5034122;28;20198;-72
2023/08/21 04:32:28;;;;;;;9.13;4.35;;;;;;;;;;5034481;28;20221;-72
2023/08/21 04:34:53;;;;;;;10.43;4.90;;;;;;;;;;5033054;28;20190;-72
2023/08/21 04:37:18;;;;;;;9.68;5.18;;;;;;;;;;5031481;28;20218;-72
2023/08/21 04:39:45;;;;;;;11.05;5.07;;;;;;;;;;5033626;28;20178;-72
2023/08/21 04:42:11;;;;;;;5.88;4.75;;;;;;;;;;5011096;28;20248;-72
2023/08/21 04:44:36;;;;;;;12.40;5.18;;;;;;;;;;5037568;28;20225;-72
2023/08/21 04:47:20;;;;;;;8.20;5.18;;;;;;;;;;5033928;28;20190;-72
2023/08/21 04:49:45;;;;;;;9.75;5.15;;;;;;;;;;5033570;28;20189;-72
2023/08/21 04:52:11;;;;;;;11.30;5.60;;;;;;;;;;5012421;28;20534;-72
2023/08/21 04:54:36;;;;;;;9.02;5.88;;;;;;;;;;5022851;28;20273;-71
2023/08/21 04:57:02;;;;;;;8.55;5.70;;;;;;;;;;5021907;28;20229;-71
2023/08/21 04:59:27;;;;;;;12.10;5.50;;;;;;;;;;5023790;28;20190;-72
2023/08/21 05:01:53;;;;;;;9.55;5.78;;;;;;;;;;5030350;28;20549;-71
2023/08/21 05:04:18;;;;;;;9.43;6.22;;;;;;;;;;5017581;28;20269;-72
2023/08/21 05:06:43;;;;;;;12.05;5.25;;;;;;;;;;5031438;28;20300;-72
2023/08/21 05:09:09;;;;;;;9.00;4.97;;;;;;;;;;5032431;28;20236;-71
2023/08/21 05:11:34;;;;;;;9.38;5.63;;;;;;;;;;5031808;28;20236;-71
2023/08/21 05:14:00;;;;;;;11.10;6.30;;;;;;;;;;5031944;28;20238;-71
2023/08/21 05:16:25;;;;;;;8.77;5.85;;;;;;;;;;5031834;28;20309;-71
2023/08/21 05:18:50;;;;;;;9.63;5.63;;;;;;;;;;5016183;28;20246;-72
2023/08/21 05:21:16;;;;;;;11.13;6.05;;;;;;;;;;5032470;28;20190;-71
2023/08/21 05:23:41;;;;;;;8.68;5.80;;;;;;;;;;5031382;28;20240;-72
2023/08/21 05:26:06;;;;;;;13.07;5.88;;;;;;;;;;5025643;28;20641;-72
2023/08/21 05:28:32;;;;;;;14.38;6.82;;;;;;;;;;5037461;28;20574;-73
2023/08/21 05:30:58;;;;;;;9.38;7.22;;;;;;;;;;5034025;28;20186;-72
2023/08/21 05:33:23;;;;;;;12.00;7.85;;;;;;;;;;5031162;28;20301;-72
2023/08/21 05:35:49;;;;;;;11.82;6.90;;;;;;;;;;5030552;28;20198;-71
2023/08/21 05:38:14;;;;;;;9.40;6.22;;;;;;;;;;5030871;28;20197;-71
2023/08/21 05:40:42;;;;;;;9.35;6.68;;;;;;;;;;5033915;28;20189;-72
2023/08/21 05:43:08;;;;;;;11.65;7.13;;;;;;;;;;5025863;28;20238;-72
2023/08/21 05:45:33;;;;;;;18.25;8.77;;;;;;;;;;5031608;28;20184;-72
2023/08/21 05:47:59;;;;;;;11.55;8.30;;;;;;;;;;5025382;28;20205;-71
2023/08/21 05:50:24;;;;;;;11.82;8.63;;;;;;;;;;5029848;28;20515;-72
2023/08/21 05:52:50;;;;;;;11.32;7.50;;;;;;;;;;5025525;28;20333;-72
2023/08/21 05:55:15;;;;;;;10.88;8.07;;;;;;;;;;5021329;28;20255;-72
2023/08/21 05:57:40;;;;;;;11.05;8.20;;;;;;;;;;5028388;28;20201;-71
2023/08/21 06:00:09;;;;;;;19.45;8.77;;;;;;;;;;5025602;28;20235;-71
2023/08/21 06:02:34;;;;;;;14.57;8.60;;;;;;;;;;5017463;28;20268;-72
2023/08/21 06:05:00;;;;;;;13.77;8.68;;;;;;;;;;5031889;28;20228;-71
2023/08/21 06:07:25;;;;;;;13.13;9.00;;;;;;;;;;5030411;28;20189;-72
2023/08/21 06:09:51;;;;;;;15.27;9.00;;;;;;;;;;5013722;28;20189;-71
2023/08/21 06:12:16;;;;;;;15.55;8.80;;;;;;;;;;5028204;28;20745;-71
2023/08/21 06:14:41;;;;;;;12.77;7.93;;;;;;;;;;5019284;28;20198;-72
2023/08/21 06:17:09;;;;;;;9.82;7.35;;;;;;;;;;5009943;28;20226;-72
2023/08/21 06:19:34;;;;;;;15.55;7.80;;;;;;;;;;5026423;28;20186;-71
2023/08/21 06:21:59;;;;;;;12.98;7.65;;;;;;;;;;5028925;28;20182;-71
2023/08/21 06:24:25;;;;;;;12.65;8.27;;;;;;;;;;5012940;28;20711;-72
2023/08/21 06:26:52;;;;;;;15.40;8.57;;;;;;;;;;5022677;28;20190;-72
2023/08/21 06:29:18;;;;;;;13.75;7.75;;;;;;;;;;5022931;28;20601;-72
2023/08/21 06:31:43;;;;;;;15.32;8.13;;;;;;;;;;5034703;28;20194;-72
2023/08/21 06:34:09;;;;;;;17.05;9.10;;;;;;;;;;5020208;28;20248;-73
2023/08/21 06:36:34;;;;;;;14.18;9.27;;;;;;;;;;5036598;28;20274;-72
2023/08/21 06:39:00;;;;;;;13.25;9.35;;;;;;;;;;5034697;28;20319;-73
2023/08/21 06:41:25;;;;;;;11.65;9.50;;;;;;;;;;5028376;28;20197;-72
2023/08/21 06:43:51;;;;;;;13.10;9.77;;;;;;;;;;5028716;28;20316;-72
2023/08/21 06:46:16;;;;;;;17.02;9.98;;;;;;;;;;5030581;28;20201;-72
2023/08/21 06:48:42;;;;;;;13.25;9.40;;;;;;;;;;5029204;28;20336;-74
2023/08/21 06:51:07;;;;;;;14.50;10.38;;;;;;;;;;5025977;28;20206;-72
2023/08/21 06:53:33;;;;;;;14.43;9.65;;;;;;;;;;5020085;28;20183;-72
2023/08/21 06:55:59;;;;;;;13.85;9.27;;;;;;;;;;5030018;28;20293;-72
2023/08/21 06:58:24;;;;;;;14.40;9.57;;;;;;;;;;5029259;28;20269;-72
2023/08/21 07:00:49;;;;;;;12.35;8.90;;;;;;;;;;5028372;28;20611;-72
2023/08/21 07:03:15;;;;;;;17.55;9.60;;;;;;;;;;5026269;28;20186;-72
2023/08/21 07:05:40;;;;;;;12.95;8.68;;;;;;;;;;5027125;28;20311;-72
2023/08/21 07:08:06;;;;;;;15.73;8.93;;;;;;;;;;5030288;28;20277;-72
2023/08/21 07:10:37;;;;;;;14.73;8.75;;;;;;;;;;5028166;28;20681;-72
2023/08/21 07:13:02;;;;;;;15.77;8.07;;;;;;;;;;5029563;28;20228;-72
2023/08/21 07:15:29;;;;;;;12.75;8.15;;;;;;;;;;5030191;28;20567;-72
2023/08/21 07:17:55;;;;;;;12.38;7.80;;;;;;;;;;5027965;28;20725;-72
2023/08/21 07:20:21;;;;;;;13.63;7.25;;;;;;;;;;5021509;28;20218;-72
2023/08/21 07:22:46;;;;;;;11.02;7.25;;;;;;;;;;5028194;28;20307;-72
2023/08/21 07:25:11;;;;;;;9.18;6.45;;;;;;;;;;5030061;28;20205;-72
2023/08/21 07:27:37;;;;;;;11.40;6.35;;;;;;;;;;5029261;28;20283;-72
2023/08/21 07:30:03;;;;;;;12.50;6.63;;;;;;;;;;5021677;28;20609;-72
2023/08/21 07:32:28;;;;;;;12.85;5.65;;;;;;;;;;5030166;28;20186;-72
2023/08/21 07:34:56;;;;;;;12.82;6.40;;;;;;;;;;5023505;28;20240;-72
2023/08/21 07:37:22;;;;;;;12.70;6.10;;;;;;;;;;5013476;28;20269;-72
2023/08/21 07:39:47;;;;;;;9.75;5.57;;;;;;;;;;5012627;28;20202;-72
2023/08/21 07:42:12;;;;;;;14.93;6.30;;;;;;;;;;5029067;28;20190;-72
2023/08/21 07:44:39;;;;;;;9.52;5.72;;;;;;;;;;5028524;28;20290;-72
2023/08/21 07:47:05;;;;;;;14.10;6.68;;;;;;;;;;5028321;28;20186;-72
2023/08/21 07:49:31;;;;;;;12.48;5.82;;;;;;;;;;5029795;28;20262;-72
2023/08/21 07:51:56;;;;;;;10.75;5.20;;;;;;;;;;5028876;28;20194;-72
2023/08/21 07:54:21;;;;;;;8.82;4.75;;;;;;;;;;5030101;28;20201;-72
2023/08/21 07:56:47;;;;;;;7.28;4.78;;;;;;;;;;5017496;28;20689;-72
2023/08/21 07:59:12;;;;;;;6.28;3.90;;;;;;;;;;5030940;28;20622;-72
2023/08/21 08:01:38;;;;;;;9.13;4.18;;;;;;;;;;5033680;28;20272;-71
2023/08/21 08:04:04;;;;;;;11.88;4.10;;;;;;;;;;5019982;28;20174;-72
2023/08/21 08:06:30;;;;;;;7.35;3.60;;;;;;;;;;5034241;28;20275;-71
2023/08/21 08:08:55;;;;;;;7.78;2.90;;;;;;;;;;5033777;28;20197;-71
2023/08/21 08:11:20;;;;;;;7.20;3.22;;;;;;;;;;5033560;28;20201;-72
2023/08/21 08:13:46;;;;;;;8.30;2.50;;;;;;;;;;5033265;28;20249;-72
2023/08/21 08:16:11;;;;;;;5.90;2.53;;;;;;;;;;5033161;28;20202;-71
2023/08/21 08:18:37;;;;;;;7.57;2.42;;;;;;;;;;5038764;28;20221;-72
2023/08/21 08:21:02;;;;;;;7.65;2.88;;;;;;;;;;5030997;28;20186;-72
2023/08/21 08:23:27;;;;;;;5.57;2.53;;;;;;;;;;5033216;28;20194;-71
2023/08/21 08:25:53;;;;;;;8.40;2.13;;;;;;;;;;5026447;28;20329;-71
2023/08/21 08:28:18;;;;;;;7.70;2.67;;;;;;;;;;5022143;28;20186;-72
2023/08/21 08:30:45;;;;;;;7.15;2.30;;;;;;;;;;5040972;28;20272;-72
2023/08/21 08:33:11;;;;;;;4.90;1.80;;;;;;;;;;5033637;28;20204;-72
2023/08/21 08:35:36;;;;;;;5.80;1.90;;;;;;;;;;5032309;28;20578;-72
2023/08/21 08:38:02;;;;;;;7.28;1.60;;;;;;;;;;5031317;28;20295;-72
2023/08/21 08:40:27;;;;;;;8.75;2.10;;;;;;;;;;5033849;28;20213;-72
2023/08/21 08:42:53;;;;;;;7.15;1.80;;;;;;;;;;5029517;28;20272;-71
2023/08/21 08:45:28;;;;;;;4.65;1.73;;;;;;;;;;5032172;28;20204;-71
2023/08/21 08:47:53;;;;;;;8.50;1.50;;;;;;;;;;5031845;28;20193;-72
2023/08/21 08:50:20;;;;;;;8.02;1.70;;;;;;;;;;5015198;28;20187;-72
2023/08/21 08:52:45;;;;;;;4.13;1.45;;;;;;;;;;5021046;28;20196;-71
2023/08/21 08:55:11;;;;;;;3.75;1.27;;;;;;;;;;5029916;28;20194;-73
2023/08/21 08:57:36;;;;;;;4.20;0.90;;;;;;;;;;5029674;28;20796;-71
2023/08/21 09:00:04;;;;;;;2.80;1.13;;;;;;;;;;5020697;28;20674;-71
2023/08/21 09:02:29;;;;;;;3.42;0.93;;;;;;;;;;5031786;28;20269;-71
2023/08/21 09:04:54;;;;;;;3.08;0.90;;;;;;;;;;5010036;28;20290;-71
2023/08/21 09:07:20;;;;;;;2.25;1.13;;;;;;;;;;5030201;28;20274;-72
2023/08/21 09:09:48;;;;;;;3.83;0.80;;;;;;;;;;5033121;28;20194;-72
2023/08/21 09:12:14;;;;;;;3.05;0.77;;;;;;;;;;5018108;28;20263;-72
2023/08/21 09:14:41;;;;;;;5.15;1.10;;;;;;;;;;5031881;28;20190;-72
2023/08/21 09:17:06;;;;;;;4.43;1.10;;;;;;;;;;5033545;28;20680;-71
2023/08/21 09:19:32;;;;;;;3.17;1.00;;;;;;;;;;5021039;28;20187;-72
2023/08/21 09:21:57;;;;;;;2.83;1.10;;;;;;;;;;5011821;28;20207;-72
2023/08/21 09:24:23;;;;;;;4.65;1.08;;;;;;;;;;5033742;28;20190;-72
2023/08/21 09:26:50;;;;;;;4.57;1.30;;;;;;;;;;5037784;28;20186;-73
2023/08/21 09:29:15;;;;;;;3.03;1.10;;;;;;;;;;5022073;28;20186;-72
2023/08/21 09:31:43;;;;;;;5.57;1.20;;;;;;;;;;5037734;28;20743;-73
2023/08/21 09:34:09;;;;;;;4.55;1.13;;;;;;;;;;5029354;28;20189;-72
2023/08/21 09:36:35;;;;;;;5.50;1.30;;;;;;;;;;5022367;28;20297;-72
2023/08/21 09:39:02;;;;;;;3.47;1.23;;;;;;;;;;5024028;28;20560;-72
2023/08/21 09:41:28;;;;;;;7.07;1.23;;;;;;;;;;5018640;28;20178;-72
2023/08/21 09:43:58;;;;;;;6.22;1.48;;;;;;;;;;5032053;28;20599;-72
2023/08/21 09:46:25;;;;;;;4.45;1.58;;;;;;;;;;5032304;28;20333;-72
2023/08/21 09:48:52;;;;;;;5.65;1.50;;;;;;;;;;5031404;28;20225;-72
2023/08/21 09:51:18;;;;;;;6.07;1.60;;;;;;;;;;5032718;28;20186;-71
2023/08/21 09:53:44;;;;;;;4.57;1.42;;;;;;;;;;5032440;28;20471;-72
2023/08/21 09:56:10;;;;;;;6.32;1.45;;;;;;;;;;5029540;28;20225;-72
2023/08/21 09:58:36;;;;;;;5.85;1.38;;;;;;;;;;5029720;28;20225;-72
2023/08/21 10:01:11;;;;;;;5.75;2.20;;;;;;;;;;5015260;28;20198;-73
2023/08/21 10:03:40;;;;;;;5.00;2.03;;;;;;;;;;5025468;28;20288;-74
2023/08/21 10:06:08;;;;;;;5.47;1.73;;;;;;;;;;5023819;28;20266;-72
2023/08/21 10:08:39;;;;;;;7.70;2.03;;;;;;;;;;5027989;28;20653;-72
2023/08/21 10:11:07;;;;;;;4.97;1.50;;;;;;;;;;5022511;28;20186;-72
2023/08/21 10:13:34;;;;;;;4.72;1.90;;;;;;;;;;5023266;28;20192;-72
2023/08/21 10:16:00;;;;;;;12.40;2.00;;;;;;;;;;5030608;28;20341;-73
2023/08/21 10:18:34;;;;;;;6.72;1.90;;;;;;;;;;5031080;28;20670;-73
2023/08/21 10:21:13;;;;;;;7.82;1.90;;;;;;;;;;5030266;28;20202;-72
2023/08/21 10:23:40;;;;;;;4.25;1.92;;;;;;;;;;5019780;28;20204;-72
2023/08/21 10:26:06;;;;;;;4.22;1.92;;;;;;;;;;5020555;28;20185;-72
2023/08/21 10:28:43;;;;;;;4.78;1.73;;;;;;;;;;5026786;28;20190;-72
2023/08/21 10:31:31;;;;;;;4.07;1.52;;;;;;;;;;5029076;28;20193;-72
2023/08/21 10:33:58;;;;;;;6.05;1.90;;;;;;;;;;5030312;28;20198;-71
2023/08/21 10:36:43;;;;;;;4.88;1.70;;;;;;;;;;5021305;28;20619;-71
2023/08/21 10:39:19;;;;;;;7.88;1.77;;;;;;;;;;5031326;28;20715;-70
2023/08/21 10:42:03;;;;;;;3.80;1.52;;;;;;;;;;5030848;28;20182;-71
2023/08/21 10:44:57;;;;;;;5.30;1.80;;;;;;;;;;5027494;28;20241;-71
2023/08/21 10:47:26;;;;;;;5.60;1.73;;;;;;;;;;5029231;28;20190;-71
2023/08/21 10:49:59;;;;;;;3.03;1.40;;;;;;;;;;5025170;28;20190;-71
2023/08/21 10:52:35;;;;;;;8.70;1.80;;;;;;;;;;5018163;28;20243;-71
2023/08/21 10:55:01;;;;;;;6.13;1.70;;;;;;;;;;5023964;28;20195;-71
2023/08/21 10:57:28;;;;;;;4.78;1.40;;;;;;;;;;5029382;28;20297;-72
2023/08/21 10:59:55;;;;;;;4.35;1.10;;;;;;;;;;5030689;28;20325;-71
2023/08/21 11:02:22;;;;;;;6.35;1.45;;;;;;;;;;5030461;28;20586;-72
2023/08/21 11:04:49;;;;;;;2.95;1.25;;;;;;;;;;5029190;28;20186;-71
2023/08/21 11:07:14;;;;;;;6.53;1.35;;;;;;;;;;5028959;28;20182;-72
2023/08/21 11:09:40;;;;;;;4.78;1.20;;;;;;;;;;5027005;28;20661;-71
2023/08/21 11:12:15;;;;;;;7.10;1.73;;;;;;;;;;5027846;28;20205;-71
2023/08/21 11:14:41;;;;;;;4.47;1.23;;;;;;;;;;5032229;28;20190;-71
2023/08/21 11:17:08;;;;;;;4.15;1.30;;;;;;;;;;5031112;28;20309;-71
2023/08/21 11:19:34;;;;;;;4.22;1.50;;;;;;;;;;5028322;28;20197;-71
2023/08/21 11:22:03;;;;;;;4.60;1.33;;;;;;;;;;5022585;28;20276;-72
2023/08/21 11:24:38;;;;;;;5.20;1.25;;;;;;;;;;5029367;28;20178;-70
2023/08/21 11:27:12;;;;;;;5.57;1.20;;;;;;;;;;5024701;28;20189;-72
2023/08/21 11:29:49;;;;;;;6.18;1.33;;;;;;;;;;5028137;28;20744;-71
2023/08/21 11:32:16;;;;;;;22.75;2.55;;;;;;;;;;5013669;28;20525;-72
2023/08/21 11:34:43;;;;;;;3.20;1.02;;;;;;;;;;5026596;28;20239;-71
2023/08/21 11:37:08;;;;;;;3.20;1.10;;;;;;;;;;5027354;28;20212;-71
2023/08/21 11:39:45;;;;;;;6.97;1.02;;;;;;;;;;5029220;28;20549;-72
2023/08/21 11:42:12;;;;;;;6.90;1.50;;;;;;;;;;5027888;28;20533;-71
2023/08/21 11:44:51;;;;;;;4.45;1.52;;;;;;;;;;5012789;28;20705;-71
2023/08/21 11:47:18;;;;;;;5.05;1.38;;;;;;;;;;5019736;28;20278;-71
2023/08/21 11:49:47;;;;;;;5.60;1.67;;;;;;;;;;5031215;28;20204;-72
2023/08/21 11:52:13;;;;;;;3.83;1.50;;;;;;;;;;5028551;28;20194;-72
2023/08/21 11:54:40;;;;;;;3.80;1.48;;;;;;;;;;5013536;28;20558;-71
2023/08/21 11:57:07;;;;;;;4.93;1.15;;;;;;;;;;5030611;28;20245;-71
2023/08/21 11:59:33;;;;;;;11.43;1.77;;;;;;;;;;5029581;28;20650;-72
2023/08/21 12:01:58;;;;;;;6.32;1.33;;;;;;;;;;5017817;28;20222;-71
2023/08/21 12:04:24;;;;;;;7.28;1.30;;;;;;;;;;5027256;28;20233;-72
2023/08/21 12:06:50;;;;;;;117.10;7.82;;;;;;;;;;5022337;28;20325;-71
2023/08/21 12:09:15;;;;;;;7.25;1.67;;;;;;;;;;5020793;28;20644;-71
2023/08/21 12:11:41;;;;;;;7.25;1.48;;;;;;;;;;5029591;28;20202;-71
2023/08/21 12:14:07;;;;;;;19.80;2.25;;;;;;;;;;5015449;28;20190;-71
2023/08/21 12:16:32;;;;;;;6.97;1.33;;;;;;;;;;5032369;28;20206;-73
2023/08/21 12:18:58;;;;;;;8.73;1.45;;;;;;;;;;5018910;28;20269;-72
2023/08/21 12:21:27;;;;;;;2.00;1.00;;;;;;;;;;5020140;28;20245;-70
2023/08/21 12:23:52;;;;;;;4.88;1.33;;;;;;;;;;5029959;28;20182;-69
2023/08/21 12:26:23;;;;;;;3.95;1.20;;;;;;;;;;5029853;28;20265;-72
2023/08/21 12:28:49;;;;;;;17.67;2.22;;;;;;;;;;5031948;28;20244;-70
2023/08/21 12:31:15;;;;;;;4.72;1.70;;;;;;;;;;5033270;28;20255;-69
2023/08/21 12:33:40;;;;;;;5.60;1.30;;;;;;;;;;5033094;28;20204;-70
2023/08/21 12:36:06;;;;;;;3.72;1.45;;;;;;;;;;5030919;28;20325;-70
2023/08/21 12:38:32;;;;;;;3.80;1.23;;;;;;;;;;5031881;28;20200;-71
2023/08/21 12:40:58;;;;;;;4.10;1.27;;;;;;;;;;5027400;28;20205;-70
2023/08/21 12:43:23;;;;;;;5.32;1.48;;;;;;;;;;5031786;28;20305;-70
2023/08/21 12:45:49;;;;;;;5.38;1.25;;;;;;;;;;5033560;28;20181;-72
2023/08/21 12:48:14;;;;;;;5.00;1.50;;;;;;;;;;5001004;28;20191;-72
2023/08/21 12:50:41;;;;;;;5.35;1.45;;;;;;;;;;5032215;28;20313;-72
2023/08/21 12:53:06;;;;;;;4.35;1.33;;;;;;;;;;5031396;28;20713;-72
2023/08/21 12:55:31;;;;;;;4.72;1.42;;;;;;;;;;5033215;28;20194;-72
2023/08/21 12:57:57;;;;;;;6.93;1.75;;;;;;;;;;5033190;28;20197;-72
2023/08/21 13:00:22;;;;;;;3.17;1.25;;;;;;;;;;5031523;28;20191;-71
2023/08/21 13:02:48;;;;;;;4.32;1.25;;;;;;;;;;5033456;28;20727;-71
2023/08/21 13:05:14;;;;;;;3.38;1.40;;;;;;;;;;5033101;28;20193;-71
2023/08/21 13:07:40;;;;;;;3.67;1.13;;;;;;;;;;5018911;28;20219;-70
2023/08/21 13:10:06;;;;;;;3.78;1.45;;;;;;;;;;5036322;28;20254;-70
2023/08/21 13:12:32;;;;;;;5.32;1.40;;;;;;;;;;5031209;28;20356;-71
2023/08/21 13:14:58;;;;;;;6.25;1.52;;;;;;;;;;5033208;28;20208;-71
2023/08/21 13:17:24;;;;;;;5.15;1.63;;;;;;;;;;5028510;28;20331;-71
2023/08/21 13:19:49;;;;;;;4.38;1.40;;;;;;;;;;5031532;28;20300;-71
2023/08/21 13:22:16;;;;;;;3.53;1.20;;;;;;;;;;5027436;28;20650;-71
2023/08/21 13:24:41;;;;;;;4.65;1.30;;;;;;;;;;5015227;28;20274;-72
2023/08/21 13:27:07;;;;;;;4.35;1.40;;;;;;;;;;5028172;28;20269;-71
2023/08/21 13:29:33;;;;;;;4.50;1.35;;;;;;;;;;5020956;28;20183;-70
2023/08/21 13:31:58;;;;;;;5.72;1.40;;;;;;;;;;5035096;28;20192;-69
2023/08/21 13:34:23;;;;;;;5.63;1.42;;;;;;;;;;5014721;28;20657;-72
2023/08/21 13:36:50;;;;;;;4.35;1.35;;;;;;;;;;5032381;28;20225;-71
2023/08/21 13:39:15;;;;;;;7.10;1.73;;;;;;;;;;5032635;28;20696;-72
2023/08/21 13:41:41;;;;;;;3.30;1.33;;;;;;;;;;5025006;28;20191;-71
2023/08/21 13:44:07;;;;;;;3.28;1.20;;;;;;;;;;5024017;28;20373;-71
2023/08/21 13:46:34;;;;;;;5.15;1.58;;;;;;;;;;5008003;28;20244;-72
2023/08/21 13:48:59;;;;;;;4.18;1.48;;;;;;;;;;5031991;28;20197;-72
2023/08/21 13:51:25;;;;;;;5.80;1.50;;;;;;;;;;5032799;28;20189;-71
2023/08/21 13:53:50;;;;;;;5.05;1.45;;;;;;;;;;5030749;28;20630;-71
2023/08/21 13:56:16;;;;;;;8.55;1.60;;;;;;;;;;5025513;28;20206;-71
2023/08/21 13:58:41;;;;;;;3.92;1.63;;;;;;;;;;5026696;28;20209;-71
2023/08/21 14:01:08;;;;;;;3.15;1.40;;;;;;;;;;5026756;28;20194;-72
2023/08/21 14:03:33;;;;;;;4.38;1.48;;;;;;;;;;5024397;28;20198;-72
2023/08/21 14:05:59;;;;;;;6.35;1.63;;;;;;;;;;5033219;28;20265;-71
2023/08/21 14:08:24;;;;;;;3.88;1.55;;;;;;;;;;5040232;28;20194;-70
2023/08/21 14:10:50;;;;;;;4.32;1.30;;;;;;;;;;5028318;28;20194;-71
2023/08/21 14:13:15;;;;;;;5.40;1.90;;;;;;;;;;5022662;28;20187;-71
2023/08/21 14:15:40;;;;;;;4.68;1.60;;;;;;;;;;5030131;28;20220;-71
2023/08/21 14:18:06;;;;;;;5.38;1.67;;;;;;;;;;5031147;28;20578;-71
2023/08/21 14:20:31;;;;;;;6.10;2.03;;;;;;;;;;5022387;28;20202;-71
2023/08/21 14:22:57;;;;;;;5.90;1.58;;;;;;;;;;5011572;28;20186;-71
2023/08/21 14:25:22;;;;;;;5.32;1.80;;;;;;;;;;5030490;28;20197;-71
2023/08/21 14:27:48;;;;;;;2.80;1.50;;;;;;;;;;5031085;28;20185;-71
2023/08/21 14:30:14;;;;;;;5.28;1.95;;;;;;;;;;5026930;28;20748;-72
2023/08/21 14:32:40;;;;;;;4.82;1.40;;;;;;;;;;5026026;28;20186;-72
2023/08/21 14:35:09;;;;;;;5.85;1.73;;;;;;;;;;5030815;28;20185;-72
2023/08/21 14:37:36;;;;;;;5.95;1.63;;;;;;;;;;5017458;28;20210;-71